sensor_id;sensor_type;location;lat;lon;timestamp;P1;durP1;ratioP1;P2;durP2;ratioP2
20739;SDS011;10530;49.968;19.844;2023-02-10T00:04:43;13.15;;;4.85;;
20739;SDS011;10530;49.968;19.844;2023-02-10T00:09:45;11.63;;;5.23;;
20739;SDS011;10530;49.968;19.844;2023-02-10T00:14:49;9.95;;;3.25;;
20739;SDS011;10530;49.968;19.844;2023-02-10T00:19:52;2.35;;;1.10;;
20739;SDS011;10530;49.968;19.844;2023-02-10T00:24:55;7.55;;;2.75;;
20739;SDS011;10530;49.968;19.844;2023-02-10T00:29:58;7.05;;;3.63;;
20739;SDS011;10530;49.968;19.844;2023-02-10T00:35:00;10.87;;;4.40;;
20739;SDS011;10530;49.968;19.844;2023-02-10T00:40:03;9.95;;;3.33;;
20739;SDS011;10530;49.968;19.844;2023-02-10T00:45:06;8.77;;;3.25;;
20739;SDS011;10530;49.968;19.844;2023-02-10T00:50:10;21.67;;;3.20;;
20739;SDS011;10530;49.968;19.844;2023-02-10T00:55:12;9.27;;;3.63;;
20739;SDS011;10530;49.968;19.844;2023-02-10T01:00:15;10.63;;;3.10;;
20739;SDS011;10530;49.968;19.844;2023-02-10T01:05:19;14.05;;;5.13;;
20739;SDS011;10530;49.968;19.844;2023-02-10T01:10:23;6.90;;;3.03;;
20739;SDS011;10530;49.968;19.844;2023-02-10T01:15:27;8.65;;;3.58;;
20739;SDS011;10530;49.968;19.844;2023-02-10T01:20:29;8.50;;;3.20;;
20739;SDS011;10530;49.968;19.844;2023-02-10T01:25:32;10.33;;;3.07;;
20739;SDS011;10530;49.968;19.844;2023-02-10T01:30:36;8.13;;;3.38;;
20739;SDS011;10530;49.968;19.844;2023-02-10T01:35:39;5.68;;;2.33;;
20739;SDS011;10530;49.968;19.844;2023-02-10T01:40:41;8.38;;;4.75;;
20739;SDS011;10530;49.968;19.844;2023-02-10T01:45:44;7.85;;;2.15;;
20739;SDS011;10530;49.968;19.844;2023-02-10T01:50:55;8.77;;;3.57;;
20739;SDS011;10530;49.968;19.844;2023-02-10T01:56:02;6.88;;;3.33;;
20739;SDS011;10530;49.968;19.844;2023-02-10T02:01:06;12.20;;;3.35;;
20739;SDS011;10530;49.968;19.844;2023-02-10T02:06:09;5.28;;;1.77;;
20739;SDS011;10530;49.968;19.844;2023-02-10T02:32:43;7.57;;;2.40;;
20739;SDS011;10530;49.968;19.844;2023-02-10T02:37:50;6.05;;;2.60;;
20739;SDS011;10530;49.968;19.844;2023-02-10T02:42:55;3.83;;;1.70;;
20739;SDS011;10530;49.968;19.844;2023-02-10T03:04:19;5.97;;;2.28;;
20739;SDS011;10530;49.968;19.844;2023-02-10T03:09:22;6.23;;;2.67;;
20739;SDS011;10530;49.968;19.844;2023-02-10T03:14:25;10.45;;;2.70;;
20739;SDS011;10530;49.968;19.844;2023-02-10T03:19:28;6.80;;;2.67;;
20739;SDS011;10530;49.968;19.844;2023-02-10T03:24:31;4.40;;;1.45;;
20739;SDS011;10530;49.968;19.844;2023-02-10T03:29:33;7.50;;;2.88;;
20739;SDS011;10530;49.968;19.844;2023-02-10T03:34:36;8.67;;;2.90;;
20739;SDS011;10530;49.968;19.844;2023-02-10T03:39:39;4.95;;;2.50;;
20739;SDS011;10530;49.968;19.844;2023-02-10T03:44:41;5.95;;;2.53;;
20739;SDS011;10530;49.968;19.844;2023-02-10T03:49:44;4.93;;;2.10;;
20739;SDS011;10530;49.968;19.844;2023-02-10T03:54:47;7.97;;;2.53;;
20739;SDS011;10530;49.968;19.844;2023-02-10T03:59:50;4.43;;;2.43;;
20739;SDS011;10530;49.968;19.844;2023-02-10T04:04:52;8.50;;;2.22;;
20739;SDS011;10530;49.968;19.844;2023-02-10T04:09:55;8.40;;;3.47;;
20739;SDS011;10530;49.968;19.844;2023-02-10T04:14:59;8.07;;;2.47;;
20739;SDS011;10530;49.968;19.844;2023-02-10T04:20:02;5.07;;;2.53;;
20739;SDS011;10530;49.968;19.844;2023-02-10T04:25:05;4.97;;;2.47;;
20739;SDS011;10530;49.968;19.844;2023-02-10T04:30:10;3.53;;;1.33;;
20739;SDS011;10530;49.968;19.844;2023-02-10T04:35:13;6.32;;;2.67;;
20739;SDS011;10530;49.968;19.844;2023-02-10T04:40:16;6.70;;;3.25;;
20739;SDS011;10530;49.968;19.844;2023-02-10T04:45:18;8.02;;;2.83;;
20739;SDS011;10530;49.968;19.844;2023-02-10T04:50:21;6.90;;;2.93;;
20739;SDS011;10530;49.968;19.844;2023-02-10T04:55:24;9.48;;;4.45;;
20739;SDS011;10530;49.968;19.844;2023-02-10T05:00:27;15.75;;;5.55;;
20739;SDS011;10530;49.968;19.844;2023-02-10T05:05:30;14.82;;;4.63;;
20739;SDS011;10530;49.968;19.844;2023-02-10T05:10:33;16.58;;;4.57;;
20739;SDS011;10530;49.968;19.844;2023-02-10T05:15:36;14.43;;;4.70;;
20739;SDS011;10530;49.968;19.844;2023-02-10T05:20:38;13.73;;;4.32;;
20739;SDS011;10530;49.968;19.844;2023-02-10T05:25:41;14.65;;;6.07;;
20739;SDS011;10530;49.968;19.844;2023-02-10T05:30:44;16.38;;;5.57;;
20739;SDS011;10530;49.968;19.844;2023-02-10T05:35:48;13.43;;;6.18;;
20739;SDS011;10530;49.968;19.844;2023-02-10T05:40:51;14.83;;;4.57;;
20739;SDS011;10530;49.968;19.844;2023-02-10T05:45:56;11.57;;;5.10;;
20739;SDS011;10530;49.968;19.844;2023-02-10T05:50:58;19.77;;;5.95;;
20739;SDS011;10530;49.968;19.844;2023-02-10T05:56:01;14.10;;;5.25;;
20739;SDS011;10530;49.968;19.844;2023-02-10T06:01:08;16.35;;;5.28;;
20739;SDS011;10530;49.968;19.844;2023-02-10T06:06:11;14.37;;;6.23;;
20739;SDS011;10530;49.968;19.844;2023-02-10T06:11:14;12.68;;;5.70;;
20739;SDS011;10530;49.968;19.844;2023-02-10T06:16:17;10.88;;;5.55;;
20739;SDS011;10530;49.968;19.844;2023-02-10T06:21:20;13.63;;;5.50;;
20739;SDS011;10530;49.968;19.844;2023-02-10T06:26:25;15.15;;;5.57;;
20739;SDS011;10530;49.968;19.844;2023-02-10T06:31:29;9.13;;;4.40;;
20739;SDS011;10530;49.968;19.844;2023-02-10T06:36:32;10.65;;;4.93;;
20739;SDS011;10530;49.968;19.844;2023-02-10T06:41:35;9.45;;;3.63;;
20739;SDS011;10530;49.968;19.844;2023-02-10T06:46:38;5.78;;;2.88;;
20739;SDS011;10530;49.968;19.844;2023-02-10T06:51:41;14.25;;;5.35;;
20739;SDS011;10530;49.968;19.844;2023-02-10T06:56:45;10.97;;;3.93;;
20739;SDS011;10530;49.968;19.844;2023-02-10T07:01:49;13.30;;;5.63;;
20739;SDS011;10530;49.968;19.844;2023-02-10T07:06:52;18.55;;;5.68;;
20739;SDS011;10530;49.968;19.844;2023-02-10T07:11:55;15.02;;;5.68;;
20739;SDS011;10530;49.968;19.844;2023-02-10T07:17:01;12.32;;;5.55;;
20739;SDS011;10530;49.968;19.844;2023-02-10T07:22:04;21.80;;;7.10;;
20739;SDS011;10530;49.968;19.844;2023-02-10T07:27:08;12.77;;;5.47;;
20739;SDS011;10530;49.968;19.844;2023-02-10T07:32:11;21.88;;;8.50;;
20739;SDS011;10530;49.968;19.844;2023-02-10T07:37:14;11.73;;;5.30;;
20739;SDS011;10530;49.968;19.844;2023-02-10T07:42:17;13.88;;;5.53;;
20739;SDS011;10530;49.968;19.844;2023-02-10T07:47:39;18.40;;;7.87;;
20739;SDS011;10530;49.968;19.844;2023-02-10T07:52:42;16.75;;;7.40;;
20739;SDS011;10530;49.968;19.844;2023-02-10T07:57:45;27.33;;;8.88;;
20739;SDS011;10530;49.968;19.844;2023-02-10T08:02:48;22.77;;;8.68;;
20739;SDS011;10530;49.968;19.844;2023-02-10T08:07:51;18.73;;;7.70;;
20739;SDS011;10530;49.968;19.844;2023-02-10T08:12:54;20.67;;;9.00;;
20739;SDS011;10530;49.968;19.844;2023-02-10T08:17:58;20.70;;;7.70;;
20739;SDS011;10530;49.968;19.844;2023-02-10T08:23:02;18.83;;;6.90;;
20739;SDS011;10530;49.968;19.844;2023-02-10T08:28:05;23.73;;;8.23;;
20739;SDS011;10530;49.968;19.844;2023-02-10T08:33:08;17.92;;;7.15;;
20739;SDS011;10530;49.968;19.844;2023-02-10T08:38:12;20.87;;;8.63;;
20739;SDS011;10530;49.968;19.844;2023-02-10T08:43:15;28.40;;;10.55;;
20739;SDS011;10530;49.968;19.844;2023-02-10T08:48:18;23.90;;;8.57;;
20739;SDS011;10530;49.968;19.844;2023-02-10T08:53:21;24.25;;;10.20;;
20739;SDS011;10530;49.968;19.844;2023-02-10T08:58:24;20.50;;;8.70;;
20739;SDS011;10530;49.968;19.844;2023-02-10T09:03:27;31.37;;;10.63;;
20739;SDS011;10530;49.968;19.844;2023-02-10T09:08:30;20.10;;;8.68;;
20739;SDS011;10530;49.968;19.844;2023-02-10T09:13:33;28.27;;;10.40;;
20739;SDS011;10530;49.968;19.844;2023-02-10T09:18:37;26.23;;;9.80;;
20739;SDS011;10530;49.968;19.844;2023-02-10T09:23:40;27.98;;;9.75;;
20739;SDS011;10530;49.968;19.844;2023-02-10T09:28:45;22.00;;;8.57;;
20739;SDS011;10530;49.968;19.844;2023-02-10T09:33:48;30.73;;;11.88;;
20739;SDS011;10530;49.968;19.844;2023-02-10T09:38:50;35.28;;;14.05;;
20739;SDS011;10530;49.968;19.844;2023-02-10T09:43:59;41.13;;;14.82;;
20739;SDS011;10530;49.968;19.844;2023-02-10T09:54:39;31.70;;;12.93;;
20739;SDS011;10530;49.968;19.844;2023-02-10T09:59:43;33.05;;;14.40;;
20739;SDS011;10530;49.968;19.844;2023-02-10T10:04:48;42.00;;;15.20;;
20739;SDS011;10530;49.968;19.844;2023-02-10T10:10:01;32.40;;;14.65;;
20739;SDS011;10530;49.968;19.844;2023-02-10T10:15:17;43.90;;;17.45;;
20739;SDS011;10530;49.968;19.844;2023-02-10T10:25:38;37.17;;;15.52;;
20739;SDS011;10530;49.968;19.844;2023-02-10T10:31:00;41.90;;;16.77;;
20739;SDS011;10530;49.968;19.844;2023-02-10T10:36:11;35.70;;;14.77;;
20739;SDS011;10530;49.968;19.844;2023-02-10T10:41:17;35.42;;;14.25;;
20739;SDS011;10530;49.968;19.844;2023-02-10T10:51:49;26.17;;;11.15;;
20739;SDS011;10530;49.968;19.844;2023-02-10T10:57:02;28.15;;;9.82;;
20739;SDS011;10530;49.968;19.844;2023-02-10T11:02:16;26.27;;;10.85;;
20739;SDS011;10530;49.968;19.844;2023-02-10T11:07:24;25.98;;;8.35;;
20739;SDS011;10530;49.968;19.844;2023-02-10T11:22:42;16.05;;;5.68;;
20739;SDS011;10530;49.968;19.844;2023-02-10T11:27:52;12.82;;;5.72;;
20739;SDS011;10530;49.968;19.844;2023-02-10T11:32:57;14.32;;;5.93;;
20739;SDS011;10530;49.968;19.844;2023-02-10T11:38:05;17.63;;;6.67;;
20739;SDS011;10530;49.968;19.844;2023-02-10T11:43:10;18.30;;;6.63;;
20739;SDS011;10530;49.968;19.844;2023-02-10T11:48:17;10.82;;;4.53;;
20739;SDS011;10530;49.968;19.844;2023-02-10T11:53:25;14.70;;;5.93;;
20739;SDS011;10530;49.968;19.844;2023-02-10T12:09:31;13.13;;;4.97;;
20739;SDS011;10530;49.968;19.844;2023-02-10T12:25:40;17.65;;;6.45;;
20739;SDS011;10530;49.968;19.844;2023-02-10T12:36:41;12.20;;;4.47;;
20739;SDS011;10530;49.968;19.844;2023-02-10T12:42:00;11.35;;;4.93;;
20739;SDS011;10530;49.968;19.844;2023-02-10T12:47:21;27.27;;;9.10;;
20739;SDS011;10530;49.968;19.844;2023-02-10T12:58:05;22.07;;;9.07;;
20739;SDS011;10530;49.968;19.844;2023-02-10T13:03:17;23.80;;;9.68;;
20739;SDS011;10530;49.968;19.844;2023-02-10T13:08:41;18.35;;;5.60;;
20739;SDS011;10530;49.968;19.844;2023-02-10T13:13:50;22.02;;;8.85;;
20739;SDS011;10530;49.968;19.844;2023-02-10T13:34:58;26.52;;;10.63;;
20739;SDS011;10530;49.968;19.844;2023-02-10T13:40:05;27.02;;;10.60;;
20739;SDS011;10530;49.968;19.844;2023-02-10T13:45:19;24.73;;;9.40;;
20739;SDS011;10530;49.968;19.844;2023-02-10T13:50:29;26.67;;;11.50;;
20739;SDS011;10530;49.968;19.844;2023-02-10T13:55:43;25.08;;;10.18;;
20739;SDS011;10530;49.968;19.844;2023-02-10T14:00:47;26.40;;;9.02;;
20739;SDS011;10530;49.968;19.844;2023-02-10T14:11:05;11.05;;;4.10;;
20739;SDS011;10530;49.968;19.844;2023-02-10T14:21:23;15.02;;;4.72;;
20739;SDS011;10530;49.968;19.844;2023-02-10T14:26:30;14.23;;;5.05;;
20739;SDS011;10530;49.968;19.844;2023-02-10T14:31:37;12.15;;;3.83;;
20739;SDS011;10530;49.968;19.844;2023-02-10T14:36:49;12.38;;;4.63;;
20739;SDS011;10530;49.968;19.844;2023-02-10T14:41:59;13.37;;;5.13;;
20739;SDS011;10530;49.968;19.844;2023-02-10T14:47:06;11.73;;;4.53;;
20739;SDS011;10530;49.968;19.844;2023-02-10T14:52:29;13.27;;;4.60;;
20739;SDS011;10530;49.968;19.844;2023-02-10T14:57:39;16.67;;;4.32;;
20739;SDS011;10530;49.968;19.844;2023-02-10T15:02:51;6.65;;;2.28;;
20739;SDS011;10530;49.968;19.844;2023-02-10T15:07:58;14.37;;;5.67;;
20739;SDS011;10530;49.968;19.844;2023-02-10T15:13:02;17.45;;;7.07;;
20739;SDS011;10530;49.968;19.844;2023-02-10T15:18:18;29.52;;;9.45;;
20739;SDS011;10530;49.968;19.844;2023-02-10T15:23:29;23.50;;;9.27;;
20739;SDS011;10530;49.968;19.844;2023-02-10T15:28:34;20.65;;;8.18;;
20739;SDS011;10530;49.968;19.844;2023-02-10T15:33:38;23.53;;;10.10;;
20739;SDS011;10530;49.968;19.844;2023-02-10T15:38:44;28.20;;;10.40;;
20739;SDS011;10530;49.968;19.844;2023-02-10T15:43:51;27.55;;;9.73;;
20739;SDS011;10530;49.968;19.844;2023-02-10T15:49:07;20.17;;;9.13;;
20739;SDS011;10530;49.968;19.844;2023-02-10T15:54:17;34.33;;;12.20;;
20739;SDS011;10530;49.968;19.844;2023-02-10T15:59:21;27.10;;;10.73;;
20739;SDS011;10530;49.968;19.844;2023-02-10T16:04:29;36.60;;;10.40;;
20739;SDS011;10530;49.968;19.844;2023-02-10T16:09:33;20.70;;;8.60;;
20739;SDS011;10530;49.968;19.844;2023-02-10T16:14:36;22.63;;;9.85;;
20739;SDS011;10530;49.968;19.844;2023-02-10T16:19:41;27.75;;;9.95;;
20739;SDS011;10530;49.968;19.844;2023-02-10T16:24:45;25.30;;;9.27;;
20739;SDS011;10530;49.968;19.844;2023-02-10T16:29:50;21.45;;;8.38;;
20739;SDS011;10530;49.968;19.844;2023-02-10T16:34:53;13.23;;;5.57;;
20739;SDS011;10530;49.968;19.844;2023-02-10T16:39:56;29.55;;;8.52;;
20739;SDS011;10530;49.968;19.844;2023-02-10T16:44:59;21.85;;;9.55;;
20739;SDS011;10530;49.968;19.844;2023-02-10T16:50:02;23.67;;;9.43;;
20739;SDS011;10530;49.968;19.844;2023-02-10T16:55:05;21.98;;;9.45;;
20739;SDS011;10530;49.968;19.844;2023-02-10T17:00:09;23.55;;;7.85;;
20739;SDS011;10530;49.968;19.844;2023-02-10T17:05:14;21.95;;;8.77;;
20739;SDS011;10530;49.968;19.844;2023-02-10T17:10:22;25.70;;;9.20;;
20739;SDS011;10530;49.968;19.844;2023-02-10T17:15:27;24.03;;;9.20;;
20739;SDS011;10530;49.968;19.844;2023-02-10T17:20:31;32.65;;;11.45;;
20739;SDS011;10530;49.968;19.844;2023-02-10T17:25:35;32.92;;;10.43;;
20739;SDS011;10530;49.968;19.844;2023-02-10T17:30:38;32.15;;;10.35;;
20739;SDS011;10530;49.968;19.844;2023-02-10T17:35:43;29.55;;;10.27;;
20739;SDS011;10530;49.968;19.844;2023-02-10T17:40:50;20.67;;;9.50;;
20739;SDS011;10530;49.968;19.844;2023-02-10T17:45:53;29.88;;;10.35;;
20739;SDS011;10530;49.968;19.844;2023-02-10T17:50:59;30.15;;;10.75;;
20739;SDS011;10530;49.968;19.844;2023-02-10T17:56:06;25.80;;;9.70;;
20739;SDS011;10530;49.968;19.844;2023-02-10T18:01:27;25.30;;;9.55;;
20739;SDS011;10530;49.968;19.844;2023-02-10T18:06:32;20.40;;;8.57;;
20739;SDS011;10530;49.968;19.844;2023-02-10T18:11:35;32.20;;;11.13;;
20739;SDS011;10530;49.968;19.844;2023-02-10T18:16:38;6.97;;;3.58;;
20739;SDS011;10530;49.968;19.844;2023-02-10T18:21:41;25.48;;;9.80;;
20739;SDS011;10530;49.968;19.844;2023-02-10T18:26:45;15.15;;;5.57;;
20739;SDS011;10530;49.968;19.844;2023-02-10T18:31:48;18.30;;;8.70;;
20739;SDS011;10530;49.968;19.844;2023-02-10T18:36:51;29.60;;;9.95;;
20739;SDS011;10530;49.968;19.844;2023-02-10T18:41:56;34.33;;;12.43;;
20739;SDS011;10530;49.968;19.844;2023-02-10T18:46:59;23.33;;;9.68;;
20739;SDS011;10530;49.968;19.844;2023-02-10T18:52:02;21.67;;;7.55;;
20739;SDS011;10530;49.968;19.844;2023-02-10T18:57:05;25.40;;;10.70;;
20739;SDS011;10530;49.968;19.844;2023-02-10T19:02:09;27.70;;;10.55;;
20739;SDS011;10530;49.968;19.844;2023-02-10T19:07:16;30.92;;;12.02;;
20739;SDS011;10530;49.968;19.844;2023-02-10T19:12:19;27.88;;;11.30;;
20739;SDS011;10530;49.968;19.844;2023-02-10T19:17:23;22.67;;;8.48;;
20739;SDS011;10530;49.968;19.844;2023-02-10T19:22:26;30.40;;;11.57;;
20739;SDS011;10530;49.968;19.844;2023-02-10T19:27:29;37.45;;;11.70;;
20739;SDS011;10530;49.968;19.844;2023-02-10T19:32:32;36.38;;;12.25;;
20739;SDS011;10530;49.968;19.844;2023-02-10T19:37:44;29.55;;;12.20;;
20739;SDS011;10530;49.968;19.844;2023-02-10T19:42:47;33.97;;;13.02;;
20739;SDS011;10530;49.968;19.844;2023-02-10T19:47:50;43.67;;;14.17;;
20739;SDS011;10530;49.968;19.844;2023-02-10T19:52:53;37.17;;;14.13;;
20739;SDS011;10530;49.968;19.844;2023-02-10T19:57:56;34.22;;;12.20;;
20739;SDS011;10530;49.968;19.844;2023-02-10T20:02:58;34.72;;;13.65;;
20739;SDS011;10530;49.968;19.844;2023-02-10T20:08:01;43.28;;;14.73;;
20739;SDS011;10530;49.968;19.844;2023-02-10T20:13:04;35.53;;;13.50;;
20739;SDS011;10530;49.968;19.844;2023-02-10T20:18:08;36.13;;;9.95;;
20739;SDS011;10530;49.968;19.844;2023-02-10T20:23:11;39.53;;;13.20;;
20739;SDS011;10530;49.968;19.844;2023-02-10T20:28:14;41.95;;;12.88;;
20739;SDS011;10530;49.968;19.844;2023-02-10T20:33:18;40.05;;;14.70;;
20739;SDS011;10530;49.968;19.844;2023-02-10T20:38:21;36.80;;;14.17;;
20739;SDS011;10530;49.968;19.844;2023-02-10T20:43:25;46.63;;;16.30;;
20739;SDS011;10530;49.968;19.844;2023-02-10T20:48:28;29.63;;;13.18;;
20739;SDS011;10530;49.968;19.844;2023-02-10T20:53:32;42.08;;;14.68;;
20739;SDS011;10530;49.968;19.844;2023-02-10T20:58:35;40.72;;;15.95;;
20739;SDS011;10530;49.968;19.844;2023-02-10T21:03:38;46.33;;;14.90;;
20739;SDS011;10530;49.968;19.844;2023-02-10T21:08:42;35.60;;;13.43;;
20739;SDS011;10530;49.968;19.844;2023-02-10T21:13:47;45.60;;;16.00;;
20739;SDS011;10530;49.968;19.844;2023-02-10T21:18:49;42.90;;;15.00;;
20739;SDS011;10530;49.968;19.844;2023-02-10T21:23:52;47.63;;;16.67;;
20739;SDS011;10530;49.968;19.844;2023-02-10T21:28:56;40.87;;;13.43;;
20739;SDS011;10530;49.968;19.844;2023-02-10T21:34:05;35.63;;;13.32;;
20739;SDS011;10530;49.968;19.844;2023-02-10T21:39:10;41.83;;;15.82;;
20739;SDS011;10530;49.968;19.844;2023-02-10T21:44:15;53.30;;;17.52;;
20739;SDS011;10530;49.968;19.844;2023-02-10T21:49:25;43.47;;;15.02;;
20739;SDS011;10530;49.968;19.844;2023-02-10T21:54:28;30.93;;;12.33;;
20739;SDS011;10530;49.968;19.844;2023-02-10T21:59:32;39.45;;;15.02;;
20739;SDS011;10530;49.968;19.844;2023-02-10T22:04:37;23.15;;;10.20;;
20739;SDS011;10530;49.968;19.844;2023-02-10T22:09:39;51.00;;;15.82;;
20739;SDS011;10530;49.968;19.844;2023-02-10T22:14:42;43.95;;;16.52;;
20739;SDS011;10530;49.968;19.844;2023-02-10T22:19:45;47.53;;;15.33;;
20739;SDS011;10530;49.968;19.844;2023-02-10T22:24:48;45.65;;;15.93;;
20739;SDS011;10530;49.968;19.844;2023-02-10T22:29:51;43.90;;;15.93;;
20739;SDS011;10530;49.968;19.844;2023-02-10T22:34:54;31.30;;;13.85;;
20739;SDS011;10530;49.968;19.844;2023-02-10T22:39:57;36.25;;;14.02;;
20739;SDS011;10530;49.968;19.844;2023-02-10T22:45:00;32.23;;;14.20;;
20739;SDS011;10530;49.968;19.844;2023-02-10T22:50:03;34.90;;;14.40;;
20739;SDS011;10530;49.968;19.844;2023-02-10T22:55:06;24.42;;;13.15;;
20739;SDS011;10530;49.968;19.844;2023-02-10T23:00:18;42.05;;;12.32;;
20739;SDS011;10530;49.968;19.844;2023-02-10T23:05:26;29.65;;;11.07;;
20739;SDS011;10530;49.968;19.844;2023-02-10T23:10:29;26.20;;;10.30;;
20739;SDS011;10530;49.968;19.844;2023-02-10T23:15:32;33.88;;;11.80;;
20739;SDS011;10530;49.968;19.844;2023-02-10T23:20:35;31.08;;;12.70;;
20739;SDS011;10530;49.968;19.844;2023-02-10T23:25:48;35.80;;;10.57;;
20739;SDS011;10530;49.968;19.844;2023-02-10T23:30:52;37.30;;;12.68;;
20739;SDS011;10530;49.968;19.844;2023-02-10T23:35:55;32.03;;;10.57;;
20739;SDS011;10530;49.968;19.844;2023-02-10T23:40:58;20.30;;;9.35;;
20739;SDS011;10530;49.968;19.844;2023-02-10T23:46:03;28.80;;;9.77;;
20739;SDS011;10530;49.968;19.844;2023-02-10T23:51:14;23.25;;;8.25;;
20739;SDS011;10530;49.968;19.844;2023-02-10T23:56:20;22.50;;;8.02;;
